Time,TemperatureF,DewpointF,PressureIn,WindDirection,WindDirectionDegrees,WindSpeedMPH,WindSpeedGustMPH,Humidity,HourlyPrecipIn,Conditions,Clouds,dailyrainin,SoftwareType,DateUTC
2013-06-29 00:00:00,79.0,-29.7,30.03,WSW,247,0.0,6.0,1,0.00,,,0.00,Weather View 32 v70,2013-06-29 04:00:00,
2013-06-29 00:05:00,79.0,-29.7,30.03,South,180,0.0,6.0,1,0.00,,,0.00,Weather View 32 v70,2013-06-29 04:05:00,
2013-06-29 00:10:00,79.0,-29.7,30.03,South,180,2.0,6.0,1,0.00,,,0.00,Weather View 32 v70,2013-06-29 04:10:00,
2013-06-29 00:15:00,79.0,-29.7,30.03,WSW,247,0.0,6.0,1,0.00,,,0.00,Weather View 32 v70,2013-06-29 04:15:00,
2013-06-29 00:20:00,79.0,-29.7,30.03,South,180,0.0,6.0,1,0.00,,,0.00,Weather View 32 v70,2013-06-29 04:20:00,
2013-06-29 00:25:00,79.0,-29.7,30.03,WSW,247,0.0,6.0,1,0.00,,,0.00,Weather View 32 v70,2013-06-29 04:25:00,
2013-06-29 00:30:00,79.0,-29.7,30.03,South,180,0.0,6.0,1,0.00,,,0.00,Weather View 32 v70,2013-06-29 04:30:00,
2013-06-29 00:35:00,78.0,-30.3,30.03,SSE,157,2.0,6.0,1,0.00,,,0.00,Weather View 32 v70,2013-06-29 04:35:00,
2013-06-29 00:40:00,79.0,-29.7,30.03,South,180,2.0,5.0,1,0.00,,,0.00,Weather View 32 v70,2013-06-29 04:40:00,
2013-06-29 00:50:00,78.0,-30.3,30.02,South,180,0.0,5.0,1,0.00,,,0.00,Weather View 32 v70,2013-06-29 04:50:00,
2013-06-29 00:55:00,79.0,-29.7,30.02,South,180,4.0,5.0,1,0.00,,,0.00,Weather View 32 v70,2013-06-29 04:55:00,
2013-06-29 01:00:00,78.0,-30.3,30.02,South,180,2.0,5.0,1,0.00,,,0.00,Weather View 32 v70,2013-06-29 05:00:00,
2013-06-29 01:05:00,79.0,-29.7,30.01,SSE,157,0.0,5.0,1,0.00,,,0.00,Weather View 32 v70,2013-06-29 05:05:00,
2013-06-29 01:15:00,79.0,-29.7,30.01,WSW,247,5.0,6.0,1,0.00,,,0.00,Weather View 32 v70,2013-06-29 05:15:00,
2013-06-29 01:20:00,79.0,-29.7,30.01,WSW,247,1.0,6.0,1,0.00,,,0.00,Weather View 32 v70,2013-06-29 05:20:00,
2013-06-29 01:25:00,79.0,-29.7,30.01,South,180,1.0,7.0,1,0.00,,,0.00,Weather View 32 v70,2013-06-29 05:25:00,
2013-06-29 01:30:00,79.0,-29.7,30.00,South,180,3.0,7.0,1,0.00,,,0.00,Weather View 32 v70,2013-06-29 05:30:00,
2013-06-29 01:35:00,78.0,-30.3,30.00,SSE,157,4.0,7.0,1,0.00,,,0.00,Weather View 32 v70,2013-06-29 05:35:00,
2013-06-29 01:40:00,78.0,-30.3,29.99,South,180,5.0,7.0,1,0.00,,,0.00,Weather View 32 v70,2013-06-29 05:40:00,
2013-06-29 01:45:00,78.0,-30.3,29.99,South,180,3.0,7.0,1,0.00,,,0.00,Weather View 32 v70,2013-06-29 05:45:00,
2013-06-29 01:50:00,78.0,-30.3,29.99,SSE,157,3.0,8.0,1,0.00,,,0.00,Weather View 32 v70,2013-06-29 05:50:00,
2013-06-29 01:55:00,78.0,-30.3,29.99,WSW,247,3.0,8.0,1,0.00,,,0.00,Weather View 32 v70,2013-06-29 05:55:00,
2013-06-29 02:00:00,79.0,-29.7,29.99,WSW,247,2.0,8.0,1,0.00,,,0.00,Weather View 32 v70,2013-06-29 06:00:00,
2013-06-29 02:05:00,79.0,-29.7,29.99,WSW,247,2.0,8.0,1,0.00,,,0.00,Weather View 32 v70,2013-06-29 06:05:00,
2013-06-29 02:10:00,79.0,-29.7,29.99,WSW,247,4.0,8.0,1,0.00,,,0.00,Weather View 32 v70,2013-06-29 06:10:00,
2013-06-29 02:15:00,79.0,-29.7,29.99,WSW,247,4.0,8.0,1,0.00,,,0.00,Weather View 32 v70,2013-06-29 06:15:00,
2013-06-29 02:20:00,79.0,-29.7,29.99,South,180,2.0,8.0,1,0.00,,,0.00,Weather View 32 v70,2013-06-29 06:20:00,
2013-06-29 02:25:00,78.0,-17.2,29.99,South,180,3.0,8.0,2,0.00,,,0.00,Weather View 32 v70,2013-06-29 06:25:00,
2013-06-29 02:35:00,79.0,-29.7,29.99,South,180,0.0,8.0,1,0.00,,,0.00,Weather View 32 v70,2013-06-29 06:35:00,
2013-06-29 02:40:00,79.0,-29.7,29.98,South,180,1.0,8.0,1,0.00,,,0.00,Weather View 32 v70,2013-06-29 06:40:00,
2013-06-29 02:45:00,78.0,-30.3,29.98,WSW,247,0.0,8.0,1,0.00,,,0.00,Weather View 32 v70,2013-06-29 06:45:00,
2013-06-29 02:50:00,78.0,-30.3,29.98,South,180,3.0,8.0,1,0.00,,,0.00,Weather View 32 v70,2013-06-29 06:50:00,
2013-06-29 02:55:00,78.0,-9.2,29.99,South,180,6.0,8.0,3,0.00,,,0.00,Weather View 32 v70,2013-06-29 06:55:00,
2013-06-29 03:00:00,78.0,-30.3,29.99,WSW,247,2.0,8.0,1,0.00,,,0.00,Weather View 32 v70,2013-06-29 07:00:00,
2013-06-29 03:05:00,78.0,-30.3,29.99,WSW,247,1.0,8.0,1,0.00,,,0.00,Weather View 32 v70,2013-06-29 07:05:00,
2013-06-29 03:10:00,78.0,-30.3,29.99,WSW,247,0.0,8.0,1,0.00,,,0.00,Weather View 32 v70,2013-06-29 07:10:00,
2013-06-29 03:15:00,78.0,-30.3,29.99,WSW,247,3.0,8.0,1,0.00,,,0.00,Weather View 32 v70,2013-06-29 07:15:00,
2013-06-29 03:20:00,78.0,-30.3,29.99,WSW,247,6.0,8.0,1,0.00,,,0.00,Weather View 32 v70,2013-06-29 07:20:00,
2013-06-29 03:25:00,79.0,-29.7,29.99,WSW,247,2.0,8.0,1,0.00,,,0.00,Weather View 32 v70,2013-06-29 07:25:00,
2013-06-29 03:30:00,78.0,-30.3,29.99,WSW,247,3.0,8.0,1,0.00,,,0.00,Weather View 32 v70,2013-06-29 07:30:00,
2013-06-29 03:35:00,78.0,-30.3,29.99,WSW,247,0.0,8.0,1,0.00,,,0.00,Weather View 32 v70,2013-06-29 07:35:00,
2013-06-29 03:40:00,78.0,-30.3,29.99,South,180,4.0,8.0,1,0.00,,,0.00,Weather View 32 v70,2013-06-29 07:40:00,
2013-06-29 03:50:00,78.0,-3.2,29.99,South,180,7.0,9.0,4,0.00,,,0.00,Weather View 32 v70,2013-06-29 07:50:00,
2013-06-29 03:55:00,78.0,-3.2,29.99,South,180,2.0,9.0,4,0.00,,,0.00,Weather View 32 v70,2013-06-29 07:55:00,
2013-06-29 04:00:00,78.0,-17.2,29.99,South,180,2.0,11.0,2,0.00,,,0.00,Weather View 32 v70,2013-06-29 08:00:00,
2013-06-29 04:05:00,79.0,-8.5,29.99,South,180,2.0,11.0,3,0.00,,,0.00,Weather View 32 v70,2013-06-29 08:05:00,
2013-06-29 04:10:00,78.0,-9.2,29.99,WSW,247,0.0,11.0,3,0.00,,,0.00,Weather View 32 v70,2013-06-29 08:10:00,
2013-06-29 04:15:00,79.0,-29.7,29.99,South,180,3.0,11.0,1,0.00,,,0.00,Weather View 32 v70,2013-06-29 08:15:00,
2013-06-29 04:20:00,79.0,-29.7,29.99,WSW,247,7.0,11.0,1,0.00,,,0.00,Weather View 32 v70,2013-06-29 08:20:00,
2013-06-29 04:25:00,79.0,-29.7,29.99,South,180,6.0,11.0,1,0.00,,,0.00,Weather View 32 v70,2013-06-29 08:25:00,
2013-06-29 04:30:00,79.0,-29.7,29.99,South,180,6.0,11.0,1,0.00,,,0.00,Weather View 32 v70,2013-06-29 08:30:00,
2013-06-29 04:35:00,79.0,-29.7,29.99,South,180,5.0,11.0,1,0.00,,,0.00,Weather View 32 v70,2013-06-29 08:35:00,
2013-06-29 04:40:00,79.0,-29.7,29.99,South,180,1.0,11.0,1,0.00,,,0.00,Weather View 32 v70,2013-06-29 08:40:00,
2013-06-29 04:45:00,79.0,-29.7,29.99,WSW,247,4.0,11.0,1,0.00,,,0.00,Weather View 32 v70,2013-06-29 08:45:00,
2013-06-29 04:50:00,79.0,-29.7,30.00,South,180,6.0,11.0,1,0.00,,,0.00,Weather View 32 v70,2013-06-29 08:50:00,
2013-06-29 04:55:00,79.0,-29.7,29.99,WSW,247,0.0,11.0,1,0.00,,,0.00,Weather View 32 v70,2013-06-29 08:55:00,
2013-06-29 05:00:00,79.0,-29.7,29.99,WSW,247,2.0,9.0,1,0.00,,,0.00,Weather View 32 v70,2013-06-29 09:00:00,
2013-06-29 05:10:00,79.0,-29.7,29.99,WSW,247,6.0,9.0,1,0.00,,,0.00,Weather View 32 v70,2013-06-29 09:10:00,
2013-06-29 05:15:00,79.0,-29.7,29.99,WSW,247,4.0,9.0,1,0.00,,,0.00,Weather View 32 v70,2013-06-29 09:15:00,
2013-06-29 05:20:00,79.0,-29.7,29.99,WSW,247,4.0,9.0,1,0.00,,,0.00,Weather View 32 v70,2013-06-29 09:20:00,
2013-06-29 05:25:00,79.0,-2.6,29.99,WSW,247,3.0,9.0,4,0.00,,,0.00,Weather View 32 v70,2013-06-29 09:25:00,
2013-06-29 05:35:00,79.0,-29.7,29.99,SSE,157,0.0,9.0,1,0.00,,,0.00,Weather View 32 v70,2013-06-29 09:35:00,
2013-06-29 05:40:00,79.0,-29.7,29.99,WSW,247,0.0,9.0,1,0.00,,,0.00,Weather View 32 v70,2013-06-29 09:40:00,
2013-06-29 05:45:00,79.0,-29.7,29.99,SSE,157,3.0,9.0,1,0.00,,,0.00,Weather View 32 v70,2013-06-29 09:45:00,
2013-06-29 05:50:00,78.0,-30.3,29.99,South,180,0.0,9.0,1,0.00,,,0.00,Weather View 32 v70,2013-06-29 09:50:00,
2013-06-29 05:55:00,78.0,-30.3,29.99,South,180,2.0,9.0,1,0.00,,,0.00,Weather View 32 v70,2013-06-29 09:55:00,
2013-06-29 06:00:00,78.0,-30.3,29.99,South,180,2.0,9.0,1,0.00,,,0.00,Weather View 32 v70,2013-06-29 10:00:00,
2013-06-29 06:05:00,78.0,1.5,29.99,WSW,247,7.0,9.0,5,0.00,,,0.00,Weather View 32 v70,2013-06-29 10:05:00,
2013-06-29 06:10:00,78.0,-30.3,29.99,South,180,6.0,9.0,1,0.00,,,0.00,Weather View 32 v70,2013-06-29 10:10:00,
2013-06-29 06:20:00,78.0,-30.3,29.99,SSE,157,0.0,9.0,1,0.00,,,0.00,Weather View 32 v70,2013-06-29 10:20:00,
2013-06-29 06:25:00,78.0,-30.3,29.99,South,180,3.0,9.0,1,0.00,,,0.00,Weather View 32 v70,2013-06-29 10:25:00,
2013-06-29 06:30:00,78.0,-30.3,29.99,South,180,4.0,9.0,1,0.00,,,0.00,Weather View 32 v70,2013-06-29 10:30:00,
2013-06-29 06:35:00,78.0,-17.2,29.99,SSE,157,3.0,9.0,2,0.00,,,0.00,Weather View 32 v70,2013-06-29 10:35:00,
2013-06-29 06:40:00,78.0,-30.3,29.99,WSW,247,4.0,9.0,1,0.00,,,0.00,Weather View 32 v70,2013-06-29 10:40:00,
2013-06-29 06:45:00,78.0,5.4,29.99,South,180,5.0,9.0,6,0.00,,,0.00,Weather View 32 v70,2013-06-29 10:45:00,
2013-06-29 06:50:00,78.0,-30.3,29.99,South,180,2.0,9.0,1,0.00,,,0.00,Weather View 32 v70,2013-06-29 10:50:00,
2013-06-29 06:55:00,78.0,-30.3,29.99,SSE,157,0.0,9.0,1,0.00,,,0.00,Weather View 32 v70,2013-06-29 10:55:00,
2013-06-29 07:00:00,78.0,-30.3,29.99,WSW,247,1.0,9.0,1,0.00,,,0.00,Weather View 32 v70,2013-06-29 11:00:00,
2013-06-29 07:05:00,78.0,-30.3,30.00,South,180,2.0,9.0,1,0.00,,,0.00,Weather View 32 v70,2013-06-29 11:05:00,
2013-06-29 07:10:00,79.0,-29.7,30.00,SSE,157,2.0,9.0,1,0.00,,,0.00,Weather View 32 v70,2013-06-29 11:10:00,
2013-06-29 07:15:00,79.0,-29.7,30.00,WSW,247,6.0,9.0,1,0.00,,,0.00,Weather View 32 v70,2013-06-29 11:15:00,
2013-06-29 07:25:00,80.0,-29.1,30.00,South,180,7.0,10.0,1,0.00,,,0.00,Weather View 32 v70,2013-06-29 11:25:00,
2013-06-29 07:30:00,80.0,-29.1,30.01,South,180,7.0,11.0,1,0.00,,,0.00,Weather View 32 v70,2013-06-29 11:30:00,
2013-06-29 07:35:00,80.0,-29.1,30.01,SSE,157,5.0,11.0,1,0.00,,,0.00,Weather View 32 v70,2013-06-29 11:35:00,
2013-06-29 07:40:00,80.0,-29.1,30.01,WSW,247,6.0,11.0,1,0.00,,,0.00,Weather View 32 v70,2013-06-29 11:40:00,
2013-06-29 07:45:00,80.0,-29.1,30.01,WSW,247,7.0,11.0,1,0.00,,,0.00,Weather View 32 v70,2013-06-29 11:45:00,
2013-06-29 07:50:00,80.0,-29.1,30.01,WSW,247,5.0,11.0,1,0.00,,,0.00,Weather View 32 v70,2013-06-29 11:50:00,
2013-06-29 07:55:00,81.0,-28.5,30.02,WSW,247,6.0,11.0,1,0.00,,,0.00,Weather View 32 v70,2013-06-29 11:55:00,
2013-06-29 08:00:00,81.0,-28.5,30.02,WSW,247,6.0,12.0,1,0.00,,,0.00,Weather View 32 v70,2013-06-29 12:00:00,
2013-06-29 08:10:00,82.0,-27.9,30.03,WSW,247,9.0,12.0,1,0.00,,,0.00,Weather View 32 v70,2013-06-29 12:10:00,
2013-06-29 08:15:00,82.0,14.8,30.03,WSW,247,8.0,12.0,8,0.00,,,0.00,Weather View 32 v70,2013-06-29 12:15:00,
2013-06-29 08:20:00,82.0,8.3,30.03,WSW,247,15.0,15.0,6,0.00,,,0.00,Weather View 32 v70,2013-06-29 12:20:00,
2013-06-29 08:25:00,82.0,-27.9,30.03,WSW,247,6.0,15.0,1,0.00,,,0.00,Weather View 32 v70,2013-06-29 12:25:00,
2013-06-29 08:30:00,82.0,-27.9,30.03,South,180,4.0,15.0,1,0.00,,,0.00,Weather View 32 v70,2013-06-29 12:30:00,
2013-06-29 08:35:00,82.0,-27.9,30.02,South,180,9.0,15.0,1,0.00,,,0.00,Weather View 32 v70,2013-06-29 12:35:00,
2013-06-29 08:45:00,81.0,-7.2,30.02,WSW,247,11.0,15.0,3,0.00,,,0.00,Weather View 32 v70,2013-06-29 12:45:00,
2013-06-29 08:50:00,81.0,-7.2,30.03,South,180,9.0,15.0,3,0.00,,,0.00,Weather View 32 v70,2013-06-29 12:50:00,
2013-06-29 08:55:00,80.0,-1.9,30.02,WSW,247,7.0,15.0,4,0.00,,,0.00,Weather View 32 v70,2013-06-29 12:55:00,
2013-06-29 09:00:00,81.0,-7.2,30.03,WSW,247,7.0,15.0,3,0.00,,,0.00,Weather View 32 v70,2013-06-29 13:00:00,
2013-06-29 09:05:00,81.0,74.6,30.03,South,180,9.0,15.0,81,0.00,,,0.00,Weather View 32 v70,2013-06-29 13:05:00,
2013-06-29 09:10:00,81.0,73.8,30.03,WSW,247,6.0,15.0,79,0.00,,,0.00,Weather View 32 v70,2013-06-29 13:10:00,
2013-06-29 09:15:00,82.0,73.7,30.03,South,180,2.0,15.0,76,0.00,,,0.00,Weather View 32 v70,2013-06-29 13:15:00,
2013-06-29 09:25:00,83.0,75.8,30.04,WSW,247,6.0,14.0,79,0.00,,,0.00,Weather View 32 v70,2013-06-29 13:25:00,
2013-06-29 09:45:00,82.0,73.7,30.05,WSW,247,16.0,16.0,76,0.00,,,0.00,Weather View 32 v70,2013-06-29 13:45:00,
2013-06-29 09:55:00,79.0,70.0,30.02,South,180,1.0,16.0,74,0.04,,,0.04,Weather View 32 v70,2013-06-29 13:55:00,
2013-06-29 10:00:00,79.0,57.0,30.01,WSW,247,4.0,16.0,47,0.04,,,0.04,Weather View 32 v70,2013-06-29 14:00:00,
2013-06-29 10:05:00,79.0,12.5,30.02,WSW,247,22.0,22.0,8,0.04,,,0.04,Weather View 32 v70,2013-06-29 14:05:00,
2013-06-29 10:15:00,75.0,55.6,30.00,WSW,247,6.0,22.0,51,0.20,,,0.20,Weather View 32 v70,2013-06-29 14:15:00,
2013-06-29 10:20:00,76.0,4.0,30.00,WSW,247,9.0,22.0,6,0.00,,,0.20,Weather View 32 v70,2013-06-29 14:20:00,
2013-06-29 10:25:00,76.0,-4.6,30.01,WSW,247,6.0,22.0,4,0.20,,,0.20,Weather View 32 v70,2013-06-29 14:25:00,
2013-06-29 10:30:00,77.0,4.7,30.01,WSW,247,4.0,22.0,6,0.00,,,0.20,Weather View 32 v70,2013-06-29 14:30:00,
2013-06-29 10:35:00,77.0,30.1,30.02,WSW,247,7.0,22.0,18,0.00,,,0.20,Weather View 32 v70,2013-06-29 14:35:00,
2013-06-29 10:40:00,77.0,-9.8,30.02,WSW,247,6.0,22.0,3,0.00,,,0.20,Weather View 32 v70,2013-06-29 14:40:00,
2013-06-29 10:45:00,78.0,-3.2,30.02,WSW,247,6.0,22.0,4,0.20,,,0.20,Weather View 32 v70,2013-06-29 14:45:00,
2013-06-29 10:50:00,78.0,-3.2,30.03,WSW,247,6.0,22.0,4,0.00,,,0.20,Weather View 32 v70,2013-06-29 14:50:00,
2013-06-29 10:55:00,78.0,1.5,30.03,WSW,247,4.0,22.0,5,0.16,,,0.20,Weather View 32 v70,2013-06-29 14:55:00,
2013-06-29 11:00:00,78.0,1.5,30.03,WSW,247,9.0,22.0,5,0.16,,,0.20,Weather View 32 v70,2013-06-29 15:00:00,
2013-06-29 11:05:00,79.0,-2.6,30.03,South,180,3.0,22.0,4,0.16,,,0.20,Weather View 32 v70,2013-06-29 15:05:00,
2013-06-29 11:10:00,78.0,1.5,30.03,South,180,6.0,13.0,5,0.00,,,0.20,Weather View 32 v70,2013-06-29 15:10:00,
2013-06-29 11:20:00,77.0,4.7,30.03,WSW,247,7.0,15.0,6,0.00,,,0.20,Weather View 32 v70,2013-06-29 15:20:00,
2013-06-29 11:25:00,77.0,0.8,30.03,WSW,247,7.0,15.0,5,0.01,,,0.21,Weather View 32 v70,2013-06-29 15:25:00,
2013-06-29 11:30:00,76.0,-10.5,30.04,SSE,157,7.0,15.0,3,0.01,,,0.21,Weather View 32 v70,2013-06-29 15:30:00,
2013-06-29 11:35:00,76.0,7.4,30.03,South,180,7.0,15.0,7,0.01,,,0.21,Weather View 32 v70,2013-06-29 15:35:00,
2013-06-29 11:40:00,75.0,35.7,30.03,WSW,247,6.0,15.0,24,0.01,,,0.21,Weather View 32 v70,2013-06-29 15:40:00,
2013-06-29 11:45:00,76.0,10.3,30.03,WSW,247,3.0,15.0,8,0.01,,,0.21,Weather View 32 v70,2013-06-29 15:45:00,
2013-06-29 11:50:00,76.0,26.5,30.03,NNW,337,7.0,15.0,16,0.02,,,0.22,Weather View 32 v70,2013-06-29 15:50:00,
2013-06-29 11:55:00,76.0,-4.6,30.03,NNW,337,0.0,15.0,4,0.02,,,0.22,Weather View 32 v70,2013-06-29 15:55:00,
2013-06-29 12:00:00,76.0,7.4,30.03,WSW,247,3.0,15.0,7,0.02,,,0.22,Weather View 32 v70,2013-06-29 16:00:00,
2013-06-29 12:05:00,76.0,19.6,30.03,WSW,247,6.0,15.0,12,0.02,,,0.22,Weather View 32 v70,2013-06-29 16:05:00,
2013-06-29 12:10:00,77.0,22.3,30.03,WSW,247,5.0,15.0,13,0.02,,,0.22,Weather View 32 v70,2013-06-29 16:10:00,
2013-06-29 12:15:00,77.0,25.7,30.03,WSW,247,6.0,15.0,15,0.02,,,0.22,Weather View 32 v70,2013-06-29 16:15:00,
2013-06-29 12:20:00,77.0,18.4,30.03,WSW,247,0.0,13.0,11,0.02,,,0.22,Weather View 32 v70,2013-06-29 16:20:00,
2013-06-29 12:25:00,78.0,16.9,30.03,NNW,337,2.0,12.0,10,0.01,,,0.22,Weather View 32 v70,2013-06-29 16:25:00,
2013-06-29 12:30:00,78.0,19.1,30.03,NNW,337,0.0,12.0,11,0.01,,,0.22,Weather View 32 v70,2013-06-29 16:30:00,
2013-06-29 12:35:00,78.0,19.1,30.03,WSW,247,0.0,9.0,11,0.01,,,0.22,Weather View 32 v70,2013-06-29 16:35:00,
2013-06-29 12:40:00,77.0,18.4,30.02,NNW,337,0.0,8.0,11,0.01,,,0.22,Weather View 32 v70,2013-06-29 16:40:00,
2013-06-29 12:45:00,77.0,18.4,30.02,WSW,247,0.0,8.0,11,0.01,,,0.22,Weather View 32 v70,2013-06-29 16:45:00,
2013-06-29 12:55:00,77.0,30.1,30.01,WSW,247,0.0,7.0,18,0.00,,,0.22,Weather View 32 v70,2013-06-29 16:55:00,
2013-06-29 13:00:00,78.0,33.6,30.01,WSW,247,2.0,7.0,20,0.00,,,0.22,Weather View 32 v70,2013-06-29 17:00:00,
2013-06-29 13:05:00,78.0,33.6,30.02,WSW,247,5.0,7.0,20,0.00,,,0.22,Weather View 32 v70,2013-06-29 17:05:00,
2013-06-29 13:10:00,78.0,33.6,30.02,WSW,247,1.0,9.0,20,0.00,,,0.22,Weather View 32 v70,2013-06-29 17:10:00,
2013-06-29 13:15:00,79.0,35.6,30.02,WSW,247,1.0,9.0,21,0.00,,,0.22,Weather View 32 v70,2013-06-29 17:15:00,
2013-06-29 13:20:00,80.0,37.6,30.02,WSW,247,3.0,10.0,22,0.00,,,0.22,Weather View 32 v70,2013-06-29 17:20:00,
2013-06-29 13:25:00,79.0,39.0,30.02,NNW,337,2.0,10.0,24,0.01,,,0.23,Weather View 32 v70,2013-06-29 17:25:00,
2013-06-29 13:30:00,79.0,50.4,30.02,WSW,247,6.0,10.0,37,0.01,,,0.23,Weather View 32 v70,2013-06-29 17:30:00,
2013-06-29 13:35:00,80.0,53.4,30.02,WSW,247,8.0,10.0,40,0.01,,,0.23,Weather View 32 v70,2013-06-29 17:35:00,
2013-06-29 13:40:00,80.0,18.4,30.02,WSW,247,7.0,10.0,10,0.01,,,0.23,Weather View 32 v70,2013-06-29 17:40:00,
2013-06-29 13:45:00,80.0,39.9,30.02,WSW,247,2.0,10.0,24,0.01,,,0.23,Weather View 32 v70,2013-06-29 17:45:00,
2013-06-29 13:50:00,80.0,73.2,30.01,WSW,247,2.0,10.0,80,0.01,,,0.23,Weather View 32 v70,2013-06-29 17:50:00,
2013-06-29 13:55:00,80.0,73.2,30.02,SSE,157,7.0,10.0,80,0.01,,,0.23,Weather View 32 v70,2013-06-29 17:55:00,
2013-06-29 14:04:00,80.0,73.2,30.03,SSE,157,7.0,12.0,80,0.01,,,0.23,Weather View 32 v70,2013-06-29 18:04:00,
2013-06-29 14:10:00,79.0,71.9,30.03,SSE,157,6.0,12.0,79,0.01,,,0.23,Weather View 32 v70,2013-06-29 18:10:00,
2013-06-29 14:15:00,79.0,71.9,30.02,WSW,247,2.0,12.0,79,0.01,,,0.23,Weather View 32 v70,2013-06-29 18:15:00,
2013-06-29 14:20:00,80.0,72.9,30.01,South,180,1.0,12.0,79,0.01,,,0.23,Weather View 32 v70,2013-06-29 18:20:00,
2013-06-29 14:25:00,81.0,74.6,30.01,WSW,247,8.0,12.0,81,0.00,,,0.23,Weather View 32 v70,2013-06-29 18:25:00,
2013-06-29 14:30:00,78.0,70.6,30.01,WSW,247,9.0,29.0,78,0.03,,,0.26,Weather View 32 v70,2013-06-29 18:30:00,
2013-06-29 14:40:00,72.0,61.6,30.00,NNW,337,6.0,29.0,70,0.28,,,0.51,Weather View 32 v70,2013-06-29 18:40:00,
2013-06-29 14:45:00,72.0,62.8,29.99,NNW,337,1.0,29.0,73,0.29,,,0.52,Weather View 32 v70,2013-06-29 18:45:00,
2013-06-29 14:50:00,72.0,62.8,29.99,WSW,247,3.0,29.0,73,0.29,,,0.52,Weather View 32 v70,2013-06-29 18:50:00,
2013-06-29 14:55:00,73.0,63.8,29.99,WSW,247,4.0,29.0,73,0.29,,,0.52,Weather View 32 v70,2013-06-29 18:55:00,
2013-06-29 15:00:00,74.0,64.8,29.99,WSW,247,0.0,29.0,73,0.29,,,0.52,Weather View 32 v70,2013-06-29 19:00:00,
2013-06-29 15:05:00,74.0,64.8,29.99,WSW,247,3.0,29.0,73,0.29,,,0.52,Weather View 32 v70,2013-06-29 19:05:00,
2013-06-29 15:10:00,74.0,64.8,29.99,WSW,247,3.0,29.0,73,0.29,,,0.52,Weather View 32 v70,2013-06-29 19:10:00,
2013-06-29 15:15:00,75.0,66.1,29.98,WSW,247,0.0,29.0,74,0.29,,,0.52,Weather View 32 v70,2013-06-29 19:15:00,
2013-06-29 15:25:00,76.0,67.5,29.99,WSW,247,0.0,29.0,75,0.29,,,0.52,Weather View 32 v70,2013-06-29 19:25:00,
2013-06-29 15:30:00,76.0,67.9,29.99,WSW,247,0.0,19.0,76,0.26,,,0.52,Weather View 32 v70,2013-06-29 19:30:00,
2013-06-29 15:35:00,76.0,67.9,29.99,South,180,0.0,13.0,76,0.00,,,0.52,Weather View 32 v70,2013-06-29 19:35:00,
2013-06-29 15:40:00,77.0,68.4,29.99,South,180,0.0,9.0,75,0.01,,,0.52,Weather View 32 v70,2013-06-29 19:40:00,
2013-06-29 15:45:00,77.0,68.4,29.99,South,180,1.0,9.0,75,0.00,,,0.52,Weather View 32 v70,2013-06-29 19:45:00,
2013-06-29 15:50:00,77.0,68.8,29.99,WSW,247,7.0,15.0,76,0.00,,,0.52,Weather View 32 v70,2013-06-29 19:50:00,
2013-06-29 15:55:00,77.0,68.0,29.99,NNW,337,7.0,18.0,74,0.00,,,0.52,Weather View 32 v70,2013-06-29 19:55:00,
2013-06-29 16:00:00,77.0,67.6,29.99,NNW,337,7.0,18.0,73,0.00,,,0.52,Weather View 32 v70,2013-06-29 20:00:00,
2013-06-29 16:05:00,76.0,67.1,29.98,NNW,337,8.0,18.0,74,0.00,,,0.52,Weather View 32 v70,2013-06-29 20:05:00,
2013-06-29 16:15:00,77.0,68.8,29.97,NNW,337,6.0,18.0,76,0.00,,,0.52,Weather View 32 v70,2013-06-29 20:15:00,
2013-06-29 16:20:00,77.0,68.8,29.97,WSW,247,3.0,18.0,76,0.00,,,0.52,Weather View 32 v70,2013-06-29 20:20:00,
2013-06-29 16:25:00,77.0,69.2,29.97,WSW,247,3.0,18.0,77,0.00,,,0.52,Weather View 32 v70,2013-06-29 20:25:00,
2013-06-29 16:30:00,77.0,69.2,29.97,WSW,247,0.0,18.0,77,0.00,,,0.52,Weather View 32 v70,2013-06-29 20:30:00,
2013-06-29 16:35:00,77.0,69.2,29.97,South,180,3.0,18.0,77,0.00,,,0.52,Weather View 32 v70,2013-06-29 20:35:00,
2013-06-29 16:45:00,78.0,69.8,29.97,South,180,6.0,18.0,76,0.00,,,0.52,Weather View 32 v70,2013-06-29 20:45:00,
2013-06-29 16:50:00,78.0,69.8,29.97,SSE,157,1.0,18.0,76,0.00,,,0.52,Weather View 32 v70,2013-06-29 20:50:00,
2013-06-29 16:55:00,78.0,69.8,29.97,WSW,247,3.0,12.0,76,0.00,,,0.52,Weather View 32 v70,2013-06-29 20:55:00,
2013-06-29 17:00:00,78.0,70.6,29.97,WSW,247,6.0,11.0,78,0.00,,,0.52,Weather View 32 v70,2013-06-29 21:00:00,
2013-06-29 17:05:00,78.0,71.3,29.97,South,180,7.0,11.0,80,0.00,,,0.52,Weather View 32 v70,2013-06-29 21:05:00,
2013-06-29 17:10:00,78.0,71.7,29.97,WSW,247,1.0,10.0,81,0.00,,,0.52,Weather View 32 v70,2013-06-29 21:10:00,
2013-06-29 17:15:00,79.0,45.7,29.96,SSE,157,0.0,10.0,31,0.00,,,0.52,Weather View 32 v70,2013-06-29 21:15:00,
2013-06-29 17:20:00,79.0,6.1,29.97,WSW,247,3.0,10.0,6,0.00,,,0.52,Weather View 32 v70,2013-06-29 21:20:00,
2013-06-29 17:25:00,79.0,40.1,29.97,WSW,247,5.0,10.0,25,0.00,,,0.52,Weather View 32 v70,2013-06-29 21:25:00,
2013-06-29 17:30:00,79.0,35.6,29.97,WSW,247,6.0,10.0,21,0.00,,,0.52,Weather View 32 v70,2013-06-29 21:30:00,
2013-06-29 17:35:00,79.0,73.0,29.97,WSW,247,5.0,10.0,82,0.00,,,0.52,Weather View 32 v70,2013-06-29 21:35:00,
2013-06-29 17:40:00,80.0,74.0,29.97,NNW,337,3.0,10.0,82,0.00,,,0.52,Weather View 32 v70,2013-06-29 21:40:00,
2013-06-29 17:45:00,80.0,74.0,29.97,WSW,247,7.0,10.0,82,0.00,,,0.52,Weather View 32 v70,2013-06-29 21:45:00,
2013-06-29 17:50:00,80.0,74.0,29.97,WSW,247,7.0,10.0,82,0.00,,,0.52,Weather View 32 v70,2013-06-29 21:50:00,
2013-06-29 17:55:00,80.0,74.0,29.97,WSW,247,3.0,10.0,82,0.00,,,0.52,Weather View 32 v70,2013-06-29 21:55:00,
2013-06-29 18:05:00,80.0,74.0,29.97,WSW,247,6.0,10.0,82,0.00,,,0.52,Weather View 32 v70,2013-06-29 22:05:00,
2013-06-29 18:10:00,80.0,74.0,29.97,WSW,247,7.0,11.0,82,0.00,,,0.52,Weather View 32 v70,2013-06-29 22:10:00,
2013-06-29 18:15:00,80.0,74.0,29.97,North,360,1.0,11.0,82,0.00,,,0.52,Weather View 32 v70,2013-06-29 22:15:00,
2013-06-29 18:20:00,80.0,74.0,29.97,NNW,337,3.0,11.0,82,0.00,,,0.52,Weather View 32 v70,2013-06-29 22:20:00,
2013-06-29 18:25:00,80.0,74.0,29.97,WSW,247,0.0,11.0,82,0.00,,,0.52,Weather View 32 v70,2013-06-29 22:25:00,
2013-06-29 18:30:00,80.0,74.0,29.97,WSW,247,9.0,11.0,82,0.00,,,0.52,Weather View 32 v70,2013-06-29 22:30:00,
2013-06-29 18:35:00,80.0,74.0,29.97,South,180,6.0,11.0,82,0.00,,,0.52,Weather View 32 v70,2013-06-29 22:35:00,
2013-06-29 18:40:00,80.0,73.6,29.97,SSE,157,2.0,11.0,81,0.00,,,0.52,Weather View 32 v70,2013-06-29 22:40:00,
2013-06-29 18:45:00,81.0,43.8,29.97,WSW,247,5.0,11.0,27,0.00,,,0.52,Weather View 32 v70,2013-06-29 22:45:00,
2013-06-29 18:50:00,81.0,33.4,29.98,WSW,247,5.0,11.0,18,0.00,,,0.52,Weather View 32 v70,2013-06-29 22:50:00,
2013-06-29 18:55:00,81.0,-1.2,29.98,WSW,247,6.0,11.0,4,0.00,,,0.52,Weather View 32 v70,2013-06-29 22:55:00,
2013-06-29 19:00:00,81.0,-28.5,29.98,South,180,1.0,11.0,1,0.00,,,0.52,Weather View 32 v70,2013-06-29 23:00:00,
2013-06-29 19:06:00,81.0,-28.5,29.98,NNW,337,2.0,12.0,1,0.00,,,0.52,Weather View 32 v70,2013-06-29 23:06:00,
2013-06-29 19:15:00,80.0,74.3,29.97,WSW,247,7.0,12.0,83,0.00,,,0.52,Weather View 32 v70,2013-06-29 23:15:00,
2013-06-29 19:20:00,80.0,74.0,29.97,WSW,247,8.0,12.0,82,0.00,,,0.52,Weather View 32 v70,2013-06-29 23:20:00,
2013-06-29 19:25:00,80.0,74.3,29.97,WSW,247,7.0,12.0,83,0.00,,,0.52,Weather View 32 v70,2013-06-29 23:25:00,
2013-06-29 19:30:00,80.0,74.3,29.97,WSW,247,6.0,12.0,83,0.00,,,0.52,Weather View 32 v70,2013-06-29 23:30:00,
2013-06-29 19:35:00,80.0,74.3,29.98,WSW,247,6.0,12.0,83,0.00,,,0.52,Weather View 32 v70,2013-06-29 23:35:00,
2013-06-29 19:45:00,80.0,74.0,29.98,WSW,247,8.0,12.0,82,0.00,,,0.52,Weather View 32 v70,2013-06-29 23:45:00,
2013-06-29 19:50:00,80.0,74.0,29.98,SSE,157,0.0,12.0,82,0.00,,,0.52,Weather View 32 v70,2013-06-29 23:50:00,
2013-06-29 19:55:00,79.0,73.0,29.97,South,180,6.0,12.0,82,0.00,,,0.52,Weather View 32 v70,2013-06-29 23:55:00,
2013-06-29 20:00:00,79.0,73.0,29.97,WSW,247,9.0,12.0,82,0.00,,,0.52,Weather View 32 v70,2013-06-30 00:00:00,
2013-06-29 20:05:00,79.0,72.6,29.98,SSE,157,1.0,12.0,81,0.00,,,0.52,Weather View 32 v70,2013-06-30 00:05:00,
2013-06-29 20:10:00,79.0,72.6,29.97,South,180,3.0,11.0,81,0.00,,,0.52,Weather View 32 v70,2013-06-30 00:10:00,
2013-06-29 20:20:00,79.0,72.6,29.97,SSE,157,3.0,10.0,81,0.00,,,0.52,Weather View 32 v70,2013-06-30 00:20:00,
2013-06-29 20:25:00,79.0,72.6,29.97,SSE,157,1.0,10.0,81,0.00,,,0.52,Weather View 32 v70,2013-06-30 00:25:00,
2013-06-29 20:30:00,78.0,71.7,29.97,SSE,157,0.0,10.0,81,0.00,,,0.52,Weather View 32 v70,2013-06-30 00:30:00,
2013-06-29 20:35:00,78.0,71.7,29.97,South,180,4.0,10.0,81,0.00,,,0.52,Weather View 32 v70,2013-06-30 00:35:00,
2013-06-29 20:40:00,78.0,71.3,29.97,South,180,0.0,10.0,80,0.00,,,0.52,Weather View 32 v70,2013-06-30 00:40:00,
2013-06-29 20:45:00,78.0,71.3,29.97,South,180,0.0,10.0,80,0.00,,,0.52,Weather View 32 v70,2013-06-30 00:45:00,
2013-06-29 20:50:00,77.0,70.0,29.97,South,180,0.0,10.0,79,0.00,,,0.52,Weather View 32 v70,2013-06-30 00:50:00,
2013-06-29 20:55:00,77.0,70.0,29.97,SSE,157,0.0,10.0,79,0.00,,,0.52,Weather View 32 v70,2013-06-30 00:55:00,
2013-06-29 21:00:00,77.0,70.0,29.97,SSE,157,0.0,10.0,79,0.00,,,0.52,Weather View 32 v70,2013-06-30 01:00:00,
2013-06-29 21:05:00,77.0,70.0,29.97,SSE,157,3.0,6.0,79,0.00,,,0.52,Weather View 32 v70,2013-06-30 01:05:00,
2013-06-29 21:10:00,77.0,70.0,29.97,SSE,157,1.0,6.0,79,0.00,,,0.52,Weather View 32 v70,2013-06-30 01:10:00,
2013-06-29 21:15:00,77.0,69.6,29.97,SSE,157,0.0,6.0,78,0.00,,,0.52,Weather View 32 v70,2013-06-30 01:15:00,
2013-06-29 21:20:00,77.0,69.6,29.97,SSE,157,0.0,6.0,78,0.00,,,0.52,Weather View 32 v70,2013-06-30 01:20:00,
2013-06-29 21:25:00,77.0,69.6,29.98,SSE,157,1.0,6.0,78,0.00,,,0.52,Weather View 32 v70,2013-06-30 01:25:00,
2013-06-29 21:30:00,77.0,69.6,29.98,SSE,157,2.0,6.0,78,0.00,,,0.52,Weather View 32 v70,2013-06-30 01:30:00,
2013-06-29 21:40:00,77.0,69.6,29.98,SSE,157,1.0,6.0,78,0.00,,,0.52,Weather View 32 v70,2013-06-30 01:40:00,
2013-06-29 21:45:00,77.0,69.6,29.98,South,180,4.0,6.0,78,0.00,,,0.52,Weather View 32 v70,2013-06-30 01:45:00,
2013-06-29 21:50:00,77.0,69.6,29.99,South,180,0.0,6.0,78,0.00,,,0.52,Weather View 32 v70,2013-06-30 01:50:00,
2013-06-29 21:55:00,77.0,69.6,29.99,SSE,157,4.0,6.0,78,0.00,,,0.52,Weather View 32 v70,2013-06-30 01:55:00,
2013-06-29 22:00:00,77.0,69.6,29.99,SSE,157,0.0,6.0,78,0.00,,,0.52,Weather View 32 v70,2013-06-30 02:00:00,
2013-06-29 22:05:00,77.0,69.6,29.99,South,180,2.0,6.0,78,0.00,,,0.52,Weather View 32 v70,2013-06-30 02:05:00,
2013-06-29 22:10:00,77.0,69.2,29.99,South,180,2.0,6.0,77,0.00,,,0.52,Weather View 32 v70,2013-06-30 02:10:00,
2013-06-29 22:15:00,77.0,69.2,29.99,South,180,0.0,6.0,77,0.00,,,0.52,Weather View 32 v70,2013-06-30 02:15:00,
2013-06-29 22:20:00,77.0,69.2,29.99,South,180,0.0,6.0,77,0.00,,,0.52,Weather View 32 v70,2013-06-30 02:20:00,
2013-06-29 22:25:00,77.0,69.2,29.99,SSE,157,0.0,6.0,77,0.00,,,0.52,Weather View 32 v70,2013-06-30 02:25:00,
2013-06-29 22:30:00,77.0,69.2,29.99,SSE,157,2.0,6.0,77,0.00,,,0.52,Weather View 32 v70,2013-06-30 02:30:00,
2013-06-29 22:35:00,77.0,68.8,29.99,SSE,157,0.0,6.0,76,0.00,,,0.52,Weather View 32 v70,2013-06-30 02:35:00,
2013-06-29 22:45:00,77.0,68.8,30.00,South,180,0.0,5.0,76,0.00,,,0.52,Weather View 32 v70,2013-06-30 02:45:00,
2013-06-29 22:50:00,77.0,68.8,30.00,South,180,0.0,5.0,76,0.00,,,0.52,Weather View 32 v70,2013-06-30 02:50:00,
2013-06-29 23:00:00,77.0,68.8,30.00,South,180,0.0,4.0,76,0.00,,,0.52,Weather View 32 v70,2013-06-30 03:00:00,
2013-06-29 23:05:00,77.0,68.8,29.99,South,180,0.0,4.0,76,0.00,,,0.52,Weather View 32 v70,2013-06-30 03:05:00,
2013-06-29 23:10:00,77.0,68.8,29.99,South,180,0.0,4.0,76,0.00,,,0.52,Weather View 32 v70,2013-06-30 03:10:00,
2013-06-29 23:15:00,77.0,68.8,29.99,South,180,0.0,4.0,76,0.00,,,0.52,Weather View 32 v70,2013-06-30 03:15:00,
2013-06-29 23:20:00,77.0,68.8,29.99,SSE,157,0.0,4.0,76,0.00,,,0.52,Weather View 32 v70,2013-06-30 03:20:00,
2013-06-29 23:25:00,76.0,67.9,29.99,SSE,157,0.0,4.0,76,0.00,,,0.52,Weather View 32 v70,2013-06-30 03:25:00,
2013-06-29 23:30:00,76.0,67.9,29.99,South,180,0.0,4.0,76,0.00,,,0.52,Weather View 32 v70,2013-06-30 03:30:00,
2013-06-29 23:35:00,76.0,67.9,29.99,SSE,157,0.0,4.0,76,0.00,,,0.52,Weather View 32 v70,2013-06-30 03:35:00,
2013-06-29 23:40:00,76.0,67.9,29.99,SSE,157,0.0,4.0,76,0.00,,,0.52,Weather View 32 v70,2013-06-30 03:40:00,
2013-06-29 23:45:00,76.0,67.9,29.99,South,180,0.0,4.0,76,0.00,,,0.52,Weather View 32 v70,2013-06-30 03:45:00,
2013-06-29 23:50:00,76.0,67.9,29.99,South,180,0.0,4.0,76,0.00,,,0.52,Weather View 32 v70,2013-06-30 03:50:00,
2013-06-29 23:55:00,76.0,67.9,29.99,SSE,157,0.0,4.0,76,0.00,,,0.52,Weather View 32 v70,2013-06-30 03:55:00,